createdAt,value
2018-03-25T00:01:25.649Z,16.30
2018-03-25T00:03:55.166Z,18.73
2018-03-25T00:06:23.454Z,20.47
2018-03-25T00:08:51.716Z,20.23
2018-03-25T00:11:19.976Z,19.37
2018-03-25T00:13:48.244Z,19.23
2018-03-25T00:16:16.582Z,19.20
2018-03-25T00:18:45.029Z,16.83
2018-03-25T00:21:13.511Z,21.63
2018-03-25T00:23:42.544Z,21.73
2018-03-25T00:26:10.851Z,19.67
2018-03-25T00:28:39.132Z,18.80
2018-03-25T00:31:07.397Z,24.60
2018-03-25T00:33:36.821Z,20.10
2018-03-25T00:36:05.828Z,20.03
2018-03-25T00:38:34.877Z,21.47
2018-03-25T00:41:03.892Z,21.97
2018-03-25T00:43:32.255Z,19.47
2018-03-25T00:46:00.571Z,22.67
2018-03-25T00:48:28.864Z,21.47
2018-03-25T00:50:57.406Z,18.13
2018-03-25T00:53:26.517Z,24.07
2018-03-25T00:55:54.956Z,23.07
2018-03-25T00:58:23.228Z,23.63
2018-03-25T01:00:51.810Z,21.13
2018-03-25T01:03:20.105Z,20.80
2018-03-25T01:05:48.398Z,20.63
2018-03-25T01:08:17.500Z,19.10
2018-03-25T01:10:45.831Z,21.83
2018-03-25T01:13:14.226Z,21.17
2018-03-25T01:16:00.338Z,21.70
2018-03-25T01:18:28.736Z,20.77
2018-03-25T01:20:57.149Z,22.33
2018-03-25T01:23:26.252Z,19.60
2018-03-25T01:25:55.403Z,24.77
2018-03-25T01:28:23.822Z,22.87
2018-03-25T01:30:52.172Z,23.87
2018-03-25T01:33:20.441Z,18.27
2018-03-25T01:35:49.461Z,22.30
2018-03-25T01:38:18.585Z,18.27
2018-03-25T01:40:46.897Z,23.17
2018-03-25T01:43:15.208Z,18.03
2018-03-25T01:45:43.507Z,21.17
2018-03-25T01:48:11.841Z,18.90
2018-03-25T01:50:40.110Z,20.67
2018-03-25T01:53:09.132Z,24.37
2018-03-25T01:55:38.161Z,19.50
2018-03-25T01:58:06.437Z,18.17
2018-03-25T02:00:34.757Z,22.17
2018-03-25T02:03:03.016Z,20.20
2018-03-25T02:05:32.131Z,20.70
2018-03-25T02:08:00.430Z,22.53
2018-03-25T02:10:28.788Z,21.10
2018-03-25T02:12:57.179Z,17.93
2018-03-25T02:15:26.846Z,19.73
2018-03-25T02:17:55.153Z,21.03
2018-03-25T02:20:23.496Z,21.97
2018-03-25T02:22:51.766Z,22.30
2018-03-25T02:25:20.817Z,19.27
2018-03-25T02:27:49.103Z,23.67
2018-03-25T02:30:17.529Z,19.30
2018-03-25T02:32:45.784Z,22.17
2018-03-25T02:35:14.229Z,22.37
2018-03-25T02:37:42.479Z,25.93
2018-03-25T02:40:10.756Z,26.83
2018-03-25T02:42:39.026Z,23.53
2018-03-25T02:45:07.312Z,22.93
2018-03-25T02:47:35.570Z,19.07
2018-03-25T02:50:03.852Z,22.57
2018-03-25T02:52:32.114Z,21.23
2018-03-25T02:55:00.436Z,19.63
2018-03-25T02:57:29.556Z,19.50
2018-03-25T02:59:58.101Z,19.33
2018-03-25T03:02:26.628Z,22.20
2018-03-25T03:04:55.010Z,24.20
2018-03-25T03:07:23.364Z,21.30
2018-03-25T03:09:51.641Z,22.90
2018-03-25T03:12:20.678Z,23.10
2018-03-25T03:14:48.932Z,23.10
2018-03-25T03:17:17.226Z,26.67
2018-03-25T03:19:45.489Z,20.57
2018-03-25T03:22:15.816Z,23.00
2018-03-25T03:24:44.857Z,17.83
2018-03-25T03:27:14.312Z,22.50
2018-03-25T03:29:43.399Z,24.23
2018-03-25T03:32:11.776Z,20.00
2018-03-25T03:34:40.035Z,20.43
2018-03-25T03:37:09.177Z,19.50
2018-03-25T03:39:37.472Z,23.77
2018-03-25T03:42:05.850Z,22.93
2018-03-25T03:44:34.143Z,20.73
2018-03-25T03:47:03.262Z,25.00
2018-03-25T03:49:31.544Z,22.87
2018-03-25T03:52:00.137Z,22.17
2018-03-25T03:54:28.531Z,22.50
2018-03-25T03:56:58.363Z,19.37
2018-03-25T03:59:28.542Z,25.80
2018-03-25T04:01:56.969Z,25.20
2018-03-25T04:04:25.510Z,24.53
2018-03-25T04:06:53.811Z,28.30
2018-03-25T04:09:22.160Z,25.53
2018-03-25T04:11:51.619Z,27.97
2018-03-25T04:14:19.892Z,26.27
2018-03-25T04:16:48.465Z,23.53
2018-03-25T04:19:16.764Z,22.53
2018-03-25T04:21:45.045Z,22.60
2018-03-25T04:24:13.436Z,20.97
2018-03-25T04:26:41.909Z,24.90
2018-03-25T04:29:10.962Z,22.87
2018-03-25T04:31:39.228Z,23.30
2018-03-25T04:34:07.504Z,28.27
2018-03-25T04:36:36.539Z,20.90
2018-03-25T04:39:06.800Z,22.70
2018-03-25T04:41:35.062Z,23.67
2018-03-25T04:44:03.348Z,20.90
2018-03-25T04:46:31.627Z,22.53
2018-03-25T04:49:00.108Z,20.80
2018-03-25T04:51:28.463Z,23.57
2018-03-25T04:53:57.788Z,27.57
2018-03-25T04:56:26.167Z,25.97
2018-03-25T04:58:54.506Z,25.40
2018-03-25T05:01:22.764Z,25.60
2018-03-25T05:03:52.414Z,29.17
2018-03-25T05:06:20.688Z,22.00
2018-03-25T05:08:49.734Z,24.40
2018-03-25T05:11:18.024Z,26.60
2018-03-25T05:13:46.395Z,24.17
2018-03-25T05:16:14.986Z,26.43
2018-03-25T05:18:43.284Z,25.30
2018-03-25T05:21:11.574Z,26.07
2018-03-25T05:23:39.877Z,25.60
2018-03-25T05:26:08.252Z,23.47
2018-03-25T05:28:36.546Z,26.20
2018-03-25T05:31:04.829Z,27.30
2018-03-25T05:33:33.109Z,25.33
2018-03-25T05:36:02.168Z,27.00
2018-03-25T05:38:30.548Z,24.53
2018-03-25T05:40:58.897Z,29.80
2018-03-25T05:43:27.230Z,27.27
2018-03-25T05:45:55.528Z,26.57
2018-03-25T05:48:23.945Z,29.23
2018-03-25T05:50:52.200Z,31.43
2018-03-25T05:53:20.459Z,31.73
2018-03-25T05:55:48.753Z,33.10
2018-03-25T05:58:17.045Z,24.03
2018-03-25T06:00:45.431Z,25.97
2018-03-25T06:03:13.933Z,25.50
2018-03-25T06:05:42.409Z,27.53
2018-03-25T06:08:10.819Z,24.80
2018-03-25T06:10:39.113Z,25.43
2018-03-25T06:13:07.459Z,30.53
2018-03-25T06:15:36.512Z,27.60
2018-03-25T06:18:04.776Z,25.30
2018-03-25T06:20:34.411Z,25.00
2018-03-25T06:23:02.710Z,29.23
2018-03-25T06:25:30.981Z,27.20
2018-03-25T06:27:59.306Z,27.97
2018-03-25T06:30:27.891Z,27.63
2018-03-25T06:32:56.194Z,27.60
2018-03-25T06:35:25.378Z,26.17
2018-03-25T06:37:53.683Z,28.67
2018-03-25T06:40:22.044Z,27.80
2018-03-25T06:42:50.302Z,29.47
2018-03-25T06:45:18.572Z,23.07
2018-03-25T06:47:46.851Z,25.53
2018-03-25T06:50:15.137Z,26.90
2018-03-25T06:52:43.408Z,25.70
2018-03-25T06:55:11.685Z,25.30
2018-03-25T06:57:39.958Z,27.30
2018-03-25T07:00:09.014Z,24.33
2018-03-25T07:02:37.268Z,26.47
2018-03-25T07:05:05.572Z,22.00
2018-03-25T07:07:33.842Z,31.43
2018-03-25T07:10:03.477Z,26.77
2018-03-25T07:12:31.769Z,24.27
2018-03-25T07:15:00.214Z,29.53
2018-03-25T07:17:28.523Z,25.73
2018-03-25T07:19:56.869Z,28.30
2018-03-25T07:22:25.218Z,28.77
2018-03-25T07:24:53.477Z,29.70
2018-03-25T07:27:21.785Z,27.23
2018-03-25T07:29:50.815Z,28.03
2018-03-25T07:32:19.090Z,32.73
2018-03-25T07:34:47.346Z,26.63
2018-03-25T07:37:15.667Z,30.53
2018-03-25T07:39:44.701Z,25.13
2018-03-25T07:42:12.989Z,24.27
2018-03-25T07:44:41.242Z,25.27
2018-03-25T07:47:10.351Z,25.63
2018-03-25T07:49:39.367Z,28.33
2018-03-25T07:52:08.408Z,26.87
2018-03-25T07:54:36.675Z,25.83
2018-03-25T07:57:04.971Z,28.83
2018-03-25T07:59:33.236Z,25.60
2018-03-25T08:02:02.298Z,26.27
2018-03-25T08:04:30.689Z,27.27
2018-03-25T08:06:59.056Z,26.13
2018-03-25T08:09:27.537Z,24.67
2018-03-25T08:11:55.999Z,28.40
2018-03-25T08:14:24.691Z,25.40
2018-03-25T08:16:52.968Z,28.10
2018-03-25T08:19:22.245Z,28.67
2018-03-25T08:21:50.625Z,25.00
2018-03-25T08:24:18.897Z,26.17
2018-03-25T08:26:47.940Z,23.80
2018-03-25T08:29:16.231Z,21.37
2018-03-25T08:31:44.523Z,22.10
2018-03-25T08:34:12.826Z,23.00
2018-03-25T08:36:41.161Z,26.03
2018-03-25T08:39:10.220Z,23.87
2018-03-25T08:41:38.496Z,23.10
2018-03-25T08:44:06.764Z,19.37
2018-03-25T08:46:35.040Z,25.70
2018-03-25T08:49:04.067Z,20.93
2018-03-25T08:51:33.117Z,22.97
2018-03-25T08:54:01.509Z,26.03
2018-03-25T08:56:31.600Z,21.53
2018-03-25T08:59:00.707Z,20.33
2018-03-25T09:01:29.019Z,18.63
2018-03-25T09:03:57.598Z,22.83
2018-03-25T09:06:26.173Z,32.37
2018-03-25T09:08:55.570Z,25.80
2018-03-25T09:11:25.127Z,22.50
2018-03-25T09:13:54.687Z,29.10
2018-03-25T09:16:22.948Z,21.57
2018-03-25T09:18:51.223Z,23.50
2018-03-25T09:21:19.536Z,19.90
2018-03-25T09:23:47.931Z,23.77
2018-03-25T09:26:16.265Z,23.73
2018-03-25T09:28:44.556Z,21.33
2018-03-25T09:31:13.585Z,20.33
2018-03-25T09:33:41.868Z,20.73
2018-03-25T09:36:11.640Z,21.27
2018-03-25T09:38:39.911Z,21.20
2018-03-25T09:41:08.174Z,20.30
2018-03-25T09:43:37.399Z,19.30
2018-03-25T09:46:05.644Z,19.43
2018-03-25T09:48:34.700Z,20.03
2018-03-25T09:51:02.961Z,21.03
2018-03-25T09:53:32.116Z,21.80
2018-03-25T09:56:00.414Z,21.73
2018-03-25T09:58:28.801Z,23.13
2018-03-25T10:01:02.611Z,21.27
2018-03-25T10:03:32.713Z,20.57
2018-03-25T10:06:00.990Z,21.70
2018-03-25T10:08:30.131Z,20.73
2018-03-25T10:10:59.231Z,22.17
2018-03-25T10:13:27.713Z,20.90
2018-03-25T10:15:56.199Z,22.50
2018-03-25T10:18:25.319Z,20.20
2018-03-25T10:20:54.009Z,22.33
2018-03-25T10:23:22.325Z,21.03
2018-03-25T10:25:52.500Z,22.83
2018-03-25T10:28:20.778Z,21.43
2018-03-25T10:30:49.056Z,20.97
2018-03-25T10:33:17.317Z,19.30
2018-03-25T10:35:45.594Z,22.37
2018-03-25T10:38:13.851Z,18.70
2018-03-25T10:40:42.129Z,21.87
2018-03-25T10:43:10.397Z,21.27
2018-03-25T10:45:38.670Z,22.87
2018-03-25T10:48:06.949Z,22.73
2018-03-25T10:50:35.253Z,21.53
2018-03-25T10:53:03.502Z,20.27
2018-03-25T10:55:32.543Z,18.97
2018-03-25T10:58:00.823Z,21.93
2018-03-25T11:00:29.936Z,22.40
2018-03-25T11:02:58.263Z,27.13
2018-03-25T11:05:27.522Z,22.67
2018-03-25T11:07:55.946Z,20.63
2018-03-25T11:10:24.461Z,21.13
2018-03-25T11:12:54.621Z,21.67
2018-03-25T11:15:23.690Z,22.20
2018-03-25T11:17:52.748Z,22.07
2018-03-25T11:20:21.793Z,22.17
2018-03-25T11:22:50.065Z,20.23
2018-03-25T11:25:18.340Z,23.53
2018-03-25T11:27:47.372Z,23.13
2018-03-25T11:30:15.648Z,20.40
2018-03-25T11:32:43.956Z,21.53
2018-03-25T11:35:12.251Z,22.00
2018-03-25T11:37:40.538Z,20.60
2018-03-25T11:40:08.905Z,21.70
2018-03-25T11:42:37.913Z,23.17
2018-03-25T11:45:06.192Z,18.33
2018-03-25T11:47:35.289Z,22.57
2018-03-25T11:50:03.558Z,20.43
2018-03-25T11:52:31.881Z,21.80
2018-03-25T11:55:01.277Z,18.63
2018-03-25T11:57:29.810Z,21.70
2018-03-25T11:59:58.291Z,19.83
2018-03-25T12:02:28.519Z,20.27
2018-03-25T12:04:57.055Z,22.60
2018-03-25T12:07:25.704Z,20.93
2018-03-25T12:09:54.483Z,21.37
2018-03-25T12:12:23.574Z,22.20
2018-03-25T12:14:51.920Z,22.33
2018-03-25T12:17:20.952Z,18.43
2018-03-25T12:19:49.209Z,21.43
2018-03-25T12:22:17.496Z,21.20
2018-03-25T12:24:45.780Z,21.50
2018-03-25T12:27:14.952Z,22.40
2018-03-25T12:29:43.221Z,23.03
2018-03-25T12:32:11.507Z,21.23
2018-03-25T12:34:41.107Z,21.87
2018-03-25T12:37:09.380Z,19.40
2018-03-25T12:39:37.684Z,20.17
2018-03-25T12:42:06.804Z,17.83
2018-03-25T12:44:35.081Z,19.73
2018-03-25T12:47:03.367Z,15.97
2018-03-25T12:49:31.633Z,20.80
2018-03-25T12:52:00.764Z,22.87
2018-03-25T12:54:29.143Z,21.37
2018-03-25T12:56:58.413Z,20.67
2018-03-25T12:59:26.770Z,19.97
2018-03-25T13:01:55.268Z,21.77
2018-03-25T13:04:23.579Z,15.80
2018-03-25T13:06:53.067Z,15.60
2018-03-25T13:09:21.500Z,15.47
2018-03-25T13:11:49.804Z,18.00
2018-03-25T13:14:18.120Z,18.17
2018-03-25T13:16:47.188Z,20.20
2018-03-25T13:19:15.500Z,17.50
2018-03-25T13:21:43.820Z,15.47
2018-03-25T13:24:12.180Z,17.77
2018-03-25T13:26:40.533Z,15.90
2018-03-25T13:29:08.851Z,17.90
2018-03-25T13:31:37.145Z,18.03
2018-03-25T13:34:05.508Z,15.37
2018-03-25T13:36:33.792Z,16.00
2018-03-25T13:39:02.880Z,16.47
2018-03-25T13:41:31.219Z,19.10
2018-03-25T13:43:59.638Z,18.17
2018-03-25T13:46:28.974Z,17.93
2018-03-25T13:48:57.360Z,15.27
2018-03-25T13:51:25.806Z,17.80
2018-03-25T13:53:55.506Z,16.83
2018-03-25T13:56:23.814Z,14.00
2018-03-25T13:58:53.535Z,15.63
2018-03-25T14:01:21.881Z,16.13
2018-03-25T14:03:50.948Z,18.70
2018-03-25T14:06:19.260Z,16.03
2018-03-25T14:08:48.324Z,15.57
2018-03-25T14:11:16.628Z,20.67
2018-03-25T14:13:44.932Z,17.73
2018-03-25T14:16:13.999Z,20.50
2018-03-25T14:18:42.307Z,19.03
2018-03-25T14:21:10.580Z,17.07
2018-03-25T14:23:38.907Z,16.70
2018-03-25T14:26:09.829Z,18.00
2018-03-25T14:28:38.147Z,18.33
2018-03-25T14:31:06.441Z,17.13
2018-03-25T14:33:35.583Z,19.40
2018-03-25T14:36:03.887Z,19.07
2018-03-25T14:38:32.165Z,20.37
2018-03-25T14:41:00.514Z,19.10
2018-03-25T14:43:28.946Z,20.40
2018-03-25T14:45:57.470Z,19.47
2018-03-25T14:48:25.974Z,18.77
2018-03-25T14:50:54.396Z,17.60
2018-03-25T14:53:22.681Z,17.83
2018-03-25T14:55:51.784Z,17.57
2018-03-25T14:58:20.112Z,18.27
2018-03-25T15:00:48.521Z,18.10
2018-03-25T15:03:16.792Z,18.53
2018-03-25T15:05:45.104Z,21.47
2018-03-25T15:08:13.392Z,18.30
2018-03-25T15:10:41.713Z,19.37
2018-03-25T15:13:09.993Z,17.50
2018-03-25T15:15:38.315Z,18.63
2018-03-25T15:18:07.354Z,18.30
2018-03-25T15:20:35.661Z,16.73
2018-03-25T15:23:03.956Z,17.73
2018-03-25T15:25:32.341Z,17.37
2018-03-25T15:28:00.724Z,17.47
2018-03-25T15:30:29.357Z,17.83
2018-03-25T15:32:58.625Z,17.67
2018-03-25T15:35:28.116Z,18.47
2018-03-25T15:37:56.693Z,16.67
2018-03-25T15:40:25.224Z,17.47
2018-03-25T15:42:53.644Z,16.80
2018-03-25T15:45:22.907Z,18.80
2018-03-25T15:47:51.164Z,17.03
2018-03-25T15:50:19.515Z,17.63
2018-03-25T15:52:48.646Z,19.27
2018-03-25T15:55:16.957Z,20.10
2018-03-25T15:57:45.253Z,21.50
2018-03-25T16:00:13.571Z,19.30
2018-03-25T16:02:42.684Z,18.67
2018-03-25T16:05:11.755Z,16.83
2018-03-25T16:07:40.249Z,17.67
2018-03-25T16:10:08.552Z,18.20
2018-03-25T16:12:36.850Z,21.17
2018-03-25T16:15:05.147Z,19.77
2018-03-25T16:17:33.466Z,18.20
2018-03-25T16:20:01.753Z,19.63
2018-03-25T16:22:30.125Z,17.90
2018-03-25T16:24:59.257Z,19.27
2018-03-25T16:27:27.761Z,18.87
2018-03-25T16:29:56.229Z,17.07
2018-03-25T16:32:24.620Z,17.17
2018-03-25T16:34:52.954Z,18.47
2018-03-25T16:37:21.272Z,16.27
2018-03-25T16:39:49.589Z,15.97
2018-03-25T16:42:18.706Z,14.80
2018-03-25T16:44:47.762Z,16.30
2018-03-25T16:47:16.110Z,14.63
2018-03-25T16:49:44.446Z,16.77
2018-03-25T16:52:13.526Z,15.53
2018-03-25T16:54:41.783Z,15.13
2018-03-25T16:57:10.874Z,17.13
2018-03-25T16:59:39.153Z,16.13
2018-03-25T17:02:07.456Z,15.97
2018-03-25T17:04:35.733Z,16.40
2018-03-25T17:07:04.026Z,18.97
2018-03-25T17:09:32.298Z,15.50
2018-03-25T17:12:00.623Z,13.83
2018-03-25T17:14:29.666Z,14.33
2018-03-25T17:16:57.948Z,15.27
2018-03-25T17:19:26.315Z,15.77
2018-03-25T17:21:55.464Z,14.37
2018-03-25T17:24:23.861Z,16.40
2018-03-25T17:26:52.161Z,16.80
2018-03-25T17:29:20.449Z,15.33
2018-03-25T17:31:48.748Z,14.33
2018-03-25T17:34:17.052Z,16.47
2018-03-25T17:36:46.099Z,18.53
2018-03-25T17:39:15.177Z,17.47
2018-03-25T17:41:43.440Z,16.90
2018-03-25T17:44:11.739Z,18.63
2018-03-25T17:46:40.785Z,14.80
2018-03-25T17:49:09.081Z,16.83
2018-03-25T17:51:38.116Z,16.13
2018-03-25T17:54:06.380Z,16.37
2018-03-25T17:56:34.674Z,15.53
2018-03-25T17:59:02.949Z,18.40
2018-03-25T18:01:32.716Z,16.40
2018-03-25T18:04:01.027Z,15.93
2018-03-25T18:06:30.117Z,18.47
2018-03-25T18:08:58.485Z,16.87
2018-03-25T18:11:26.941Z,15.60
2018-03-25T18:13:55.384Z,14.17
2018-03-25T18:16:23.944Z,18.90
2018-03-25T18:18:52.998Z,17.87
2018-03-25T18:21:22.060Z,15.20
2018-03-25T18:23:51.132Z,16.83
2018-03-25T18:26:19.401Z,15.43
2018-03-25T18:28:47.764Z,17.77
2018-03-25T18:31:16.034Z,13.40
2018-03-25T18:33:45.080Z,14.77
2018-03-25T18:36:13.326Z,15.03
2018-03-25T18:38:42.390Z,13.37
2018-03-25T18:41:10.667Z,15.90
2018-03-25T18:43:38.940Z,15.80
2018-03-25T18:46:07.204Z,16.07
2018-03-25T18:48:35.496Z,16.33
2018-03-25T18:51:05.423Z,15.47
2018-03-25T18:53:34.456Z,14.70
2018-03-25T18:56:02.725Z,14.90
2018-03-25T18:58:31.760Z,17.30
2018-03-25T19:01:00.123Z,18.07
2018-03-25T19:03:28.532Z,17.87
2018-03-25T19:05:57.095Z,16.63
2018-03-25T19:08:26.200Z,17.67
2018-03-25T19:10:54.573Z,19.53
2018-03-25T19:13:23.024Z,27.90
2018-03-25T19:15:51.289Z,17.00
2018-03-25T19:18:20.332Z,22.17
2018-03-25T19:20:48.612Z,26.60
2018-03-25T19:23:16.899Z,20.10
2018-03-25T19:25:45.156Z,15.37
2018-03-25T19:28:14.205Z,16.33
2018-03-25T19:30:42.473Z,42.83
2018-03-25T19:33:10.758Z,22.10
2018-03-25T19:35:39.016Z,23.47
2018-03-25T19:38:07.341Z,20.87
2018-03-25T19:40:35.649Z,17.30
2018-03-25T19:43:04.643Z,20.17
2018-03-25T19:45:32.924Z,16.17
2018-03-25T19:48:01.189Z,32.00
2018-03-25T19:50:29.589Z,23.47
2018-03-25T19:52:57.929Z,21.53
2018-03-25T19:55:26.387Z,13.80
2018-03-25T19:57:54.887Z,17.80
2018-03-25T20:00:24.004Z,13.77
2018-03-25T20:02:52.342Z,14.20
2018-03-25T20:05:20.620Z,16.63
2018-03-25T20:07:49.647Z,15.40
2018-03-25T20:10:17.982Z,16.07
2018-03-25T20:12:46.310Z,16.23
2018-03-25T20:15:14.605Z,16.53
2018-03-25T20:17:43.684Z,18.33
2018-03-25T20:20:11.988Z,21.00
2018-03-25T20:22:40.284Z,16.00
2018-03-25T20:25:08.569Z,18.33
2018-03-25T20:27:36.844Z,19.63
2018-03-25T20:30:05.131Z,17.77
2018-03-25T20:32:33.389Z,19.63
2018-03-25T20:35:01.707Z,20.53
2018-03-25T20:37:30.046Z,21.60
2018-03-25T20:39:58.423Z,20.17
2018-03-25T20:42:26.747Z,19.33
2018-03-25T20:44:55.216Z,19.23
2018-03-25T20:47:23.517Z,17.70
2018-03-25T20:49:51.818Z,16.37
2018-03-25T20:52:20.163Z,17.40
2018-03-25T20:54:48.430Z,18.17
2018-03-25T20:57:16.759Z,19.33
2018-03-25T20:59:45.170Z,20.40
2018-03-25T21:02:14.331Z,21.57
2018-03-25T21:04:42.627Z,21.77
2018-03-25T21:07:10.893Z,19.13
2018-03-25T21:09:39.178Z,20.17
2018-03-25T21:12:07.463Z,19.40
2018-03-25T21:14:35.741Z,22.53
2018-03-25T21:17:04.772Z,17.97
2018-03-25T21:19:33.033Z,22.63
2018-03-25T21:22:02.088Z,20.47
2018-03-25T21:24:30.458Z,20.27
2018-03-25T21:26:58.792Z,19.43
2018-03-25T21:29:27.932Z,19.63
2018-03-25T21:31:56.446Z,20.80
2018-03-25T21:34:26.133Z,18.37
2018-03-25T21:36:55.462Z,21.57
2018-03-25T21:39:23.825Z,19.43
2018-03-25T21:41:52.182Z,20.30
2018-03-25T21:44:20.433Z,21.37
2018-03-25T21:46:48.716Z,22.30
2018-03-25T21:49:17.029Z,22.87
2018-03-25T21:51:45.435Z,19.87
2018-03-25T21:54:13.792Z,20.23
2018-03-25T21:56:42.020Z,20.70
2018-03-25T21:59:10.280Z,24.40
2018-03-25T22:01:38.560Z,19.87
2018-03-25T22:04:07.586Z,19.90
2018-03-25T22:06:35.885Z,19.40
2018-03-25T22:09:04.156Z,24.33
2018-03-25T22:11:32.417Z,21.70
2018-03-25T22:14:00.754Z,22.10
2018-03-25T22:16:29.089Z,19.10
2018-03-25T22:19:00.111Z,23.57
2018-03-25T22:21:28.455Z,21.17
2018-03-25T22:23:56.939Z,22.50
2018-03-25T22:26:25.408Z,21.03
2018-03-25T22:28:53.705Z,23.80
2018-03-25T22:31:22.024Z,20.83
2018-03-25T22:33:51.070Z,20.60
2018-03-25T22:36:19.330Z,22.17
2018-03-25T22:38:47.601Z,23.67
2018-03-25T22:41:15.896Z,20.33
2018-03-25T22:43:44.945Z,22.07
2018-03-25T22:46:13.248Z,20.77
2018-03-25T22:48:41.573Z,22.50
2018-03-25T22:51:10.601Z,22.73
2018-03-25T22:53:38.885Z,22.20
2018-03-25T22:56:07.913Z,23.23
2018-03-25T22:58:36.197Z,21.67
2018-03-25T23:01:04.450Z,22.07
2018-03-25T23:03:33.500Z,21.83
2018-03-25T23:06:01.770Z,18.80
2018-03-25T23:08:30.803Z,21.20
2018-03-25T23:10:59.087Z,25.50
2018-03-25T23:13:28.449Z,25.90
2018-03-25T23:15:57.653Z,20.50
2018-03-25T23:18:26.042Z,22.80
2018-03-25T23:20:55.430Z,21.57
2018-03-25T23:23:24.662Z,20.33
2018-03-25T23:25:52.921Z,21.10
2018-03-25T23:28:21.280Z,20.70
2018-03-25T23:30:50.310Z,20.93
2018-03-25T23:33:19.404Z,21.07
2018-03-25T23:35:47.672Z,21.90
2018-03-25T23:38:15.996Z,22.07
2018-03-25T23:40:45.076Z,21.30
2018-03-25T23:43:13.402Z,23.57
2018-03-25T23:45:41.678Z,19.93
2018-03-25T23:48:09.931Z,20.90
2018-03-25T23:50:38.214Z,21.40
2018-03-25T23:53:06.456Z,23.83
2018-03-25T23:55:34.726Z,23.57
2018-03-25T23:58:03.797Z,22.53
